Metar z pełnej godziny Komunikat METAR ze strony awiacja.imgw.pl Metar G00 EPWA METAR EPWA 190200Z 33002KT CAVOK 17/15 Q1018 NOSIG=